Time;durP1;ratioP1;P1;durP2;ratioP2;P2;SDS_P1;SDS_P2;PMS_P1;PMS_P2;Temp;Humidity;BMP_temperature;BMP_pressure;BME280_temperature;BME280_humidity;BME280_pressure;Samples;Min_cycle;Max_cycle;Signal;HPM_P1;HPM_P2
2023/03/08 00:00:09;;;;;;;10.47;4.50;;;;;;;;;;5038966;28;20442;-52
2023/03/08 00:02:35;;;;;;;5.97;4.50;;;;;;;;;;5011327;28;20500;-52
2023/03/08 00:05:01;;;;;;;10.73;4.50;;;;;;;;;;5036907;28;20516;-54
2023/03/08 00:07:27;;;;;;;5.50;4.47;;;;;;;;;;5034106;28;20501;-52
2023/03/08 00:09:53;;;;;;;12.07;6.00;;;;;;;;;;5033447;28;20433;-53
2023/03/08 00:12:19;;;;;;;8.60;4.80;;;;;;;;;;4992368;28;20535;-53
2023/03/08 00:14:45;;;;;;;7.67;4.70;;;;;;;;;;5052710;28;20442;-54
2023/03/08 00:17:14;;;;;;;6.30;3.97;;;;;;;;;;5008727;28;20499;-52
2023/03/08 00:19:40;;;;;;;7.60;4.90;;;;;;;;;;5035425;28;20512;-52
2023/03/08 00:22:05;;;;;;;6.03;4.17;;;;;;;;;;5004351;28;20526;-54
2023/03/08 00:24:31;;;;;;;9.17;5.87;;;;;;;;;;5036419;28;20568;-54
2023/03/08 00:26:57;;;;;;;8.80;5.27;;;;;;;;;;5007936;28;20502;-53
2023/03/08 00:29:23;;;;;;;9.43;5.33;;;;;;;;;;5033872;28;20180;-52
2023/03/08 00:31:49;;;;;;;9.07;5.93;;;;;;;;;;5034436;28;20449;-53
2023/03/08 00:34:15;;;;;;;11.07;4.97;;;;;;;;;;5036484;28;20520;-54
2023/03/08 00:36:41;;;;;;;11.87;6.60;;;;;;;;;;5016594;28;20555;-53
2023/03/08 00:39:07;;;;;;;10.73;5.63;;;;;;;;;;5042340;28;20880;-52
2023/03/08 00:41:33;;;;;;;8.90;4.77;;;;;;;;;;5023508;28;21209;-52
2023/03/08 00:43:59;;;;;;;7.87;4.47;;;;;;;;;;5034991;28;20450;-51
2023/03/08 00:46:26;;;;;;;8.73;5.70;;;;;;;;;;5018148;28;21754;-55
2023/03/08 00:48:53;;;;;;;10.43;5.43;;;;;;;;;;4979984;28;20853;-52
2023/03/08 00:51:19;;;;;;;8.57;4.97;;;;;;;;;;5032963;28;20432;-52
2023/03/08 00:53:45;;;;;;;10.67;6.33;;;;;;;;;;4998049;28;20435;-54
2023/03/08 00:56:11;;;;;;;10.70;5.50;;;;;;;;;;5002987;28;20595;-53
2023/03/08 00:58:38;;;;;;;9.17;5.53;;;;;;;;;;5030418;28;20430;-51
2023/03/08 01:01:04;;;;;;;6.97;5.47;;;;;;;;;;5000940;28;20503;-54
2023/03/08 01:03:30;;;;;;;7.53;5.07;;;;;;;;;;5036898;28;20446;-53
2023/03/08 01:05:56;;;;;;;7.17;4.63;;;;;;;;;;5022574;28;20466;-54
2023/03/08 01:08:22;;;;;;;8.60;5.90;;;;;;;;;;5031100;28;20556;-53
2023/03/08 01:11:06;;;;;;;7.97;5.67;;;;;;;;;;5032224;28;20434;-55
2023/03/08 01:13:33;;;;;;;11.07;5.80;;;;;;;;;;5038120;28;20445;-55
2023/03/08 01:15:59;;;;;;;8.00;6.20;;;;;;;;;;5026072;28;20497;-54
2023/03/08 01:18:25;;;;;;;11.13;7.00;;;;;;;;;;5040833;28;20565;-54
2023/03/08 01:20:58;;;;;;;8.40;6.10;;;;;;;;;;4989054;28;21114;-52
2023/03/08 01:23:24;;;;;;;10.97;5.73;;;;;;;;;;5031771;28;20545;-52
2023/03/08 01:25:57;;;;;;;9.93;5.77;;;;;;;;;;5004796;28;20462;-53
2023/03/08 01:28:23;;;;;;;8.27;4.93;;;;;;;;;;5056653;28;20469;-52
2023/03/08 01:30:48;;;;;;;11.10;6.43;;;;;;;;;;5038157;28;20452;-54
2023/03/08 01:33:14;;;;;;;8.07;5.50;;;;;;;;;;5038775;28;20531;-53
2023/03/08 01:35:40;;;;;;;12.13;7.97;;;;;;;;;;4999333;28;20505;-53
2023/03/08 01:38:06;;;;;;;12.30;6.90;;;;;;;;;;5033757;28;20801;-53
2023/03/08 01:40:32;;;;;;;12.80;7.00;;;;;;;;;;5014529;28;20444;-53
2023/03/08 01:42:58;;;;;;;8.93;6.07;;;;;;;;;;5037726;28;20467;-54
2023/03/08 01:45:43;;;;;;;10.43;6.43;;;;;;;;;;5033334;28;20450;-52
2023/03/08 01:48:09;;;;;;;16.10;7.13;;;;;;;;;;5036605;28;21018;-53
2023/03/08 01:50:35;;;;;;;11.40;6.70;;;;;;;;;;5013006;28;20544;-54
2023/03/08 01:53:01;;;;;;;9.13;5.93;;;;;;;;;;5043018;28;20434;-55
2023/03/08 01:55:27;;;;;;;12.13;5.60;;;;;;;;;;5005068;28;20485;-53
2023/03/08 01:57:53;;;;;;;9.97;6.73;;;;;;;;;;5035507;28;20496;-54
2023/03/08 02:00:23;;;;;;;8.97;5.83;;;;;;;;;;5035712;28;20518;-53
2023/03/08 02:03:02;;;;;;;12.70;7.03;;;;;;;;;;5039673;28;20450;-53
2023/03/08 02:05:28;;;;;;;9.00;5.73;;;;;;;;;;5000554;28;20959;-54
2023/03/08 02:07:54;;;;;;;13.27;6.20;;;;;;;;;;5040316;28;20486;-54
2023/03/08 02:10:20;;;;;;;7.20;5.83;;;;;;;;;;5000807;28;20446;-53
2023/03/08 02:12:46;;;;;;;9.10;5.57;;;;;;;;;;5030509;28;20878;-53
2023/03/08 02:15:13;;;;;;;10.70;6.77;;;;;;;;;;5007647;28;20430;-50
2023/03/08 02:17:40;;;;;;;11.77;6.33;;;;;;;;;;5038399;28;20454;-53
2023/03/08 02:20:24;;;;;;;8.73;5.47;;;;;;;;;;5036208;28;20560;-53
2023/03/08 02:22:52;;;;;;;9.03;6.30;;;;;;;;;;5032984;28;20539;-53
2023/03/08 02:25:24;;;;;;;14.00;5.47;;;;;;;;;;5032860;28;20954;-54
2023/03/08 02:27:50;;;;;;;8.60;6.17;;;;;;;;;;5040344;28;20515;-54
2023/03/08 02:30:22;;;;;;;10.27;6.43;;;;;;;;;;4992108;28;21150;-54
2023/03/08 02:32:48;;;;;;;8.60;6.40;;;;;;;;;;5050373;28;20530;-52
2023/03/08 02:35:14;;;;;;;9.40;6.03;;;;;;;;;;5018964;28;20517;-52
2023/03/08 02:37:40;;;;;;;12.80;6.57;;;;;;;;;;5008080;28;20205;-55
2023/03/08 02:40:06;;;;;;;10.50;6.20;;;;;;;;;;5029024;28;20430;-54
2023/03/08 02:42:32;;;;;;;11.00;5.60;;;;;;;;;;5011239;28;20176;-53
2023/03/08 02:44:58;;;;;;;7.27;5.30;;;;;;;;;;5034936;28;20436;-53
2023/03/08 02:47:24;;;;;;;10.90;6.73;;;;;;;;;;5008094;28;20560;-54
2023/03/08 02:49:50;;;;;;;10.40;6.00;;;;;;;;;;5033039;28;20774;-51
2023/03/08 02:52:16;;;;;;;10.80;6.20;;;;;;;;;;5026850;28;21270;-54
2023/03/08 02:54:42;;;;;;;8.77;5.73;;;;;;;;;;5031574;28;20442;-53
2023/03/08 02:57:08;;;;;;;9.10;5.60;;;;;;;;;;5027737;28;21078;-53
2023/03/08 02:59:34;;;;;;;10.03;5.97;;;;;;;;;;5034222;28;20931;-53
2023/03/08 03:01:59;;;;;;;10.33;6.27;;;;;;;;;;4986443;28;21059;-55
2023/03/08 03:04:28;;;;;;;8.93;6.00;;;;;;;;;;5030077;28;20434;-53
2023/03/08 03:06:54;;;;;;;7.80;5.50;;;;;;;;;;4996614;28;20305;-53
2023/03/08 03:09:20;;;;;;;6.43;5.70;;;;;;;;;;5037634;28;20587;-53
2023/03/08 03:11:46;;;;;;;15.10;5.73;;;;;;;;;;5034947;28;21039;-54
2023/03/08 03:14:12;;;;;;;8.40;6.67;;;;;;;;;;5038300;28;20903;-54
2023/03/08 03:16:38;;;;;;;9.00;5.80;;;;;;;;;;5007620;28;20437;-54
2023/03/08 03:19:04;;;;;;;11.97;5.90;;;;;;;;;;5035504;28;20696;-53
2023/03/08 03:21:30;;;;;;;7.70;5.13;;;;;;;;;;5030295;28;20443;-54
2023/03/08 03:23:56;;;;;;;8.97;5.60;;;;;;;;;;5039081;28;20454;-54
2023/03/08 03:26:22;;;;;;;8.87;6.33;;;;;;;;;;5011986;28;20450;-58
2023/03/08 03:28:51;;;;;;;9.40;5.77;;;;;;;;;;5034057;28;20447;-54
2023/03/08 03:31:20;;;;;;;8.60;5.67;;;;;;;;;;5033920;28;20430;-54
2023/03/08 03:33:46;;;;;;;8.00;6.03;;;;;;;;;;5037235;28;20445;-55
2023/03/08 03:36:13;;;;;;;8.43;5.33;;;;;;;;;;4993121;28;21210;-53
2023/03/08 03:38:39;;;;;;;10.47;6.30;;;;;;;;;;5034065;28;20474;-55
2023/03/08 03:41:06;;;;;;;7.83;5.50;;;;;;;;;;5032058;28;20452;-54
2023/03/08 03:43:32;;;;;;;8.77;5.63;;;;;;;;;;5022069;28;20534;-53
2023/03/08 03:45:58;;;;;;;8.97;6.13;;;;;;;;;;5018329;28;20515;-54
2023/03/08 03:48:24;;;;;;;13.07;5.57;;;;;;;;;;5000120;28;20488;-52
2023/03/08 03:50:57;;;;;;;7.93;5.30;;;;;;;;;;5005302;28;20572;-52
2023/03/08 03:53:23;;;;;;;11.93;7.50;;;;;;;;;;5022334;28;20479;-53
2023/03/08 03:55:49;;;;;;;21.53;5.40;;;;;;;;;;5029232;28;20419;-53
2023/03/08 03:58:15;;;;;;;11.00;5.97;;;;;;;;;;5035211;28;20891;-54
2023/03/08 04:00:41;;;;;;;11.70;6.33;;;;;;;;;;5028241;28;20432;-54
2023/03/08 04:03:07;;;;;;;7.40;4.97;;;;;;;;;;5033320;28;20600;-53
2023/03/08 04:05:33;;;;;;;13.93;6.07;;;;;;;;;;5036461;28;20442;-52
2023/03/08 04:07:59;;;;;;;9.10;5.70;;;;;;;;;;4990513;28;20490;-54
2023/03/08 04:10:25;;;;;;;9.23;6.00;;;;;;;;;;5006626;28;20468;-53
2023/03/08 04:12:51;;;;;;;9.20;5.43;;;;;;;;;;5038087;28;21724;-53
2023/03/08 04:15:17;;;;;;;17.73;6.90;;;;;;;;;;5038761;28;20187;-53
2023/03/08 04:17:43;;;;;;;11.03;5.90;;;;;;;;;;5039056;28;21128;-53
2023/03/08 04:20:09;;;;;;;9.90;6.03;;;;;;;;;;5007914;28;21474;-53
2023/03/08 04:22:35;;;;;;;9.17;4.83;;;;;;;;;;5040194;28;21013;-53
2023/03/08 04:25:01;;;;;;;11.70;5.97;;;;;;;;;;5013536;28;20453;-51
2023/03/08 04:27:27;;;;;;;8.93;6.43;;;;;;;;;;5041443;28;20476;-52
2023/03/08 04:29:53;;;;;;;8.97;6.50;;;;;;;;;;5030211;28;20442;-53
2023/03/08 04:32:19;;;;;;;11.13;5.23;;;;;;;;;;5042270;28;20521;-53
2023/03/08 04:34:45;;;;;;;12.07;5.83;;;;;;;;;;5008615;28;20501;-52
2023/03/08 04:37:11;;;;;;;12.43;5.63;;;;;;;;;;5034238;28;20450;-53
2023/03/08 04:39:37;;;;;;;8.77;6.03;;;;;;;;;;5003505;28;20541;-53
2023/03/08 04:42:03;;;;;;;8.10;5.90;;;;;;;;;;5047139;28;20449;-54
2023/03/08 04:44:29;;;;;;;15.33;5.20;;;;;;;;;;5033287;28;20442;-53
2023/03/08 04:46:55;;;;;;;8.77;5.90;;;;;;;;;;5030604;28;20496;-53
2023/03/08 04:49:21;;;;;;;12.53;6.33;;;;;;;;;;4999656;28;20449;-53
2023/03/08 04:51:47;;;;;;;15.33;7.50;;;;;;;;;;5035313;28;20433;-55
2023/03/08 04:54:13;;;;;;;13.43;6.83;;;;;;;;;;5002622;28;20450;-52
2023/03/08 04:56:39;;;;;;;10.43;5.90;;;;;;;;;;5033669;28;21112;-57
2023/03/08 04:59:05;;;;;;;9.20;5.77;;;;;;;;;;5029316;28;20449;-52
2023/03/08 05:01:31;;;;;;;12.27;6.50;;;;;;;;;;5033120;28;20998;-51
2023/03/08 05:03:56;;;;;;;11.70;6.10;;;;;;;;;;5013019;28;20451;-52
2023/03/08 05:06:23;;;;;;;10.57;6.53;;;;;;;;;;5036544;28;20535;-53
2023/03/08 05:08:50;;;;;;;9.50;6.90;;;;;;;;;;5014819;28;20442;-57
2023/03/08 05:11:21;;;;;;;15.27;7.93;;;;;;;;;;4953150;28;20449;-51
2023/03/08 05:13:47;;;;;;;7.97;5.20;;;;;;;;;;5042928;28;20441;-55
2023/03/08 05:16:13;;;;;;;7.87;6.10;;;;;;;;;;5007127;28;20426;-53
2023/03/08 05:18:39;;;;;;;11.13;6.20;;;;;;;;;;5032412;28;20608;-53
2023/03/08 05:21:06;;;;;;;8.93;5.90;;;;;;;;;;5006505;28;20442;-55
2023/03/08 05:23:32;;;;;;;10.23;5.60;;;;;;;;;;5035107;28;20454;-53
2023/03/08 05:25:58;;;;;;;12.53;6.27;;;;;;;;;;5015567;28;20446;-52
2023/03/08 05:28:25;;;;;;;9.80;6.30;;;;;;;;;;5029472;28;20573;-54
2023/03/08 05:30:59;;;;;;;9.27;6.10;;;;;;;;;;5027766;28;20549;-53
2023/03/08 05:33:25;;;;;;;10.23;5.67;;;;;;;;;;5031423;28;20441;-53
2023/03/08 05:35:52;;;;;;;11.27;7.50;;;;;;;;;;5014947;28;20998;-52
2023/03/08 05:38:18;;;;;;;9.57;6.27;;;;;;;;;;5023183;28;20438;-52
2023/03/08 05:40:51;;;;;;;13.00;7.87;;;;;;;;;;5018620;28;20716;-51
2023/03/08 05:43:19;;;;;;;9.10;6.23;;;;;;;;;;5015226;28;20989;-53
2023/03/08 05:46:04;;;;;;;9.33;6.23;;;;;;;;;;5004400;28;20561;-53
2023/03/08 05:48:30;;;;;;;14.07;7.37;;;;;;;;;;5037597;28;20997;-50
2023/03/08 05:50:57;;;;;;;12.40;6.60;;;;;;;;;;5036173;28;20435;-51
2023/03/08 05:53:22;;;;;;;11.77;6.40;;;;;;;;;;5036295;28;20486;-51
2023/03/08 05:55:48;;;;;;;13.60;7.10;;;;;;;;;;5007709;28;20446;-53
2023/03/08 05:58:14;;;;;;;10.50;6.47;;;;;;;;;;5034361;28;20943;-53
2023/03/08 06:00:40;;;;;;;9.43;5.50;;;;;;;;;;5028944;28;21125;-52
2023/03/08 06:03:06;;;;;;;12.70;6.60;;;;;;;;;;5035934;28;21058;-53
2023/03/08 06:05:32;;;;;;;7.73;5.40;;;;;;;;;;5008037;28;20883;-53
2023/03/08 06:07:58;;;;;;;8.77;6.10;;;;;;;;;;5034498;28;20831;-51
2023/03/08 06:10:24;;;;;;;8.87;6.00;;;;;;;;;;5007376;28;21030;-52
2023/03/08 06:12:50;;;;;;;11.17;6.90;;;;;;;;;;5048272;28;20522;-53
2023/03/08 06:15:16;;;;;;;12.17;7.70;;;;;;;;;;4992953;28;20525;-52
2023/03/08 06:17:42;;;;;;;9.60;6.37;;;;;;;;;;5032475;28;20427;-54
2023/03/08 06:20:08;;;;;;;11.67;8.40;;;;;;;;;;5038875;28;20442;-52
2023/03/08 06:22:34;;;;;;;11.67;7.70;;;;;;;;;;5042827;28;20498;-54
2023/03/08 06:25:00;;;;;;;13.53;7.93;;;;;;;;;;5008460;28;20541;-53
2023/03/08 06:27:26;;;;;;;12.33;8.43;;;;;;;;;;5040509;28;20515;-54
2023/03/08 06:29:52;;;;;;;10.67;6.67;;;;;;;;;;5042733;28;20987;-55
2023/03/08 06:32:18;;;;;;;12.33;7.87;;;;;;;;;;5043516;28;20533;-52
2023/03/08 06:34:45;;;;;;;13.67;7.57;;;;;;;;;;5025211;28;21284;-52
2023/03/08 06:37:12;;;;;;;14.37;7.50;;;;;;;;;;5030868;28;20488;-54
2023/03/08 06:39:38;;;;;;;15.03;8.00;;;;;;;;;;5046698;28;20432;-54
2023/03/08 06:42:04;;;;;;;14.50;7.83;;;;;;;;;;5030550;28;20469;-54
2023/03/08 06:44:40;;;;;;;17.73;8.23;;;;;;;;;;5038842;28;20434;-54
2023/03/08 06:47:08;;;;;;;20.70;10.30;;;;;;;;;;5006252;28;21153;-53
2023/03/08 06:49:34;;;;;;;15.40;7.90;;;;;;;;;;5006241;28;20482;-53
2023/03/08 06:51:59;;;;;;;11.97;7.90;;;;;;;;;;5047115;28;20446;-52
2023/03/08 06:54:25;;;;;;;17.53;8.67;;;;;;;;;;5023097;28;20448;-52
2023/03/08 06:56:51;;;;;;;15.50;8.77;;;;;;;;;;5042546;28;20459;-54
2023/03/08 06:59:17;;;;;;;17.83;10.30;;;;;;;;;;5009116;28;20207;-53
2023/03/08 07:01:43;;;;;;;13.67;8.13;;;;;;;;;;5037118;28;20438;-54
2023/03/08 07:04:09;;;;;;;12.83;8.60;;;;;;;;;;5020704;28;20513;-53
2023/03/08 07:06:35;;;;;;;12.33;8.00;;;;;;;;;;5044499;28;21084;-52
2023/03/08 07:09:01;;;;;;;14.10;9.80;;;;;;;;;;5043267;28;21026;-51
2023/03/08 07:11:28;;;;;;;10.70;7.07;;;;;;;;;;5040862;28;20466;-52
2023/03/08 07:13:54;;;;;;;12.60;7.63;;;;;;;;;;5022575;28;21133;-51
2023/03/08 07:16:20;;;;;;;12.33;7.37;;;;;;;;;;5030657;28;20447;-54
2023/03/08 07:18:55;;;;;;;14.77;7.40;;;;;;;;;;5011657;28;20462;-52
2023/03/08 07:21:21;;;;;;;12.33;7.87;;;;;;;;;;5021459;28;20469;-52
2023/03/08 07:23:47;;;;;;;15.10;12.13;;;;;;;;;;5044579;28;20934;-51
2023/03/08 07:26:13;;;;;;;20.00;9.53;;;;;;;;;;5012899;28;20510;-53
2023/03/08 07:28:39;;;;;;;15.30;8.80;;;;;;;;;;5038281;28;20445;-51
2023/03/08 07:31:05;;;;;;;14.33;8.30;;;;;;;;;;5012134;28;21030;-51
2023/03/08 07:33:31;;;;;;;22.03;9.57;;;;;;;;;;5048494;28;20501;-52
2023/03/08 07:36:00;;;;;;;16.63;8.73;;;;;;;;;;5017194;28;20468;-52
2023/03/08 07:38:26;;;;;;;9.00;6.50;;;;;;;;;;5037254;28;21002;-52
2023/03/08 07:40:55;;;;;;;13.03;7.80;;;;;;;;;;5037118;28;21182;-53
2023/03/08 07:43:21;;;;;;;12.97;8.20;;;;;;;;;;5040190;28;20434;-52
2023/03/08 07:45:47;;;;;;;13.90;7.93;;;;;;;;;;5040040;28;20438;-52
2023/03/08 07:48:13;;;;;;;12.50;8.80;;;;;;;;;;5043154;28;20433;-52
2023/03/08 07:50:39;;;;;;;10.57;6.80;;;;;;;;;;5014088;28;20545;-52
2023/03/08 07:53:06;;;;;;;10.13;7.73;;;;;;;;;;5041435;28;20570;-54
2023/03/08 07:55:33;;;;;;;15.90;8.60;;;;;;;;;;5024259;28;21274;-52
2023/03/08 07:57:59;;;;;;;13.23;8.17;;;;;;;;;;5031689;28;21083;-52
2023/03/08 08:00:25;;;;;;;13.30;9.17;;;;;;;;;;5037876;28;20438;-53
2023/03/08 08:02:52;;;;;;;15.97;7.80;;;;;;;;;;5024617;28;21067;-53
2023/03/08 08:05:20;;;;;;;12.23;8.00;;;;;;;;;;5038308;28;20463;-54
2023/03/08 08:07:47;;;;;;;15.00;8.00;;;;;;;;;;5024263;28;20480;-53
2023/03/08 08:10:12;;;;;;;11.70;6.73;;;;;;;;;;5039230;28;20550;-54
2023/03/08 08:12:38;;;;;;;12.57;7.80;;;;;;;;;;5037012;28;20894;-52
2023/03/08 08:15:05;;;;;;;11.10;7.37;;;;;;;;;;5044029;28;20509;-52
2023/03/08 08:17:31;;;;;;;11.77;6.83;;;;;;;;;;5014866;28;20446;-52
2023/03/08 08:19:58;;;;;;;11.37;7.40;;;;;;;;;;5037392;28;20815;-51
2023/03/08 08:22:24;;;;;;;12.30;8.90;;;;;;;;;;4995013;28;20191;-53
2023/03/08 08:24:50;;;;;;;12.10;7.83;;;;;;;;;;5039316;28;20445;-53
2023/03/08 08:27:16;;;;;;;12.40;6.17;;;;;;;;;;5013492;28;20507;-52
2023/03/08 08:29:45;;;;;;;13.23;7.37;;;;;;;;;;5043266;28;20430;-53
2023/03/08 08:32:10;;;;;;;11.13;8.10;;;;;;;;;;5008066;28;20442;-52
2023/03/08 08:34:36;;;;;;;10.50;7.37;;;;;;;;;;5042590;28;20815;-52
2023/03/08 08:37:03;;;;;;;15.40;7.60;;;;;;;;;;5015321;28;23609;-52
2023/03/08 08:39:29;;;;;;;14.43;6.43;;;;;;;;;;5040146;28;20198;-53
2023/03/08 08:41:54;;;;;;;9.70;6.43;;;;;;;;;;5036757;28;20430;-53
2023/03/08 08:44:20;;;;;;;12.00;8.07;;;;;;;;;;5036083;28;20572;-52
2023/03/08 08:46:46;;;;;;;9.07;6.50;;;;;;;;;;5034785;28;20469;-52
2023/03/08 08:49:12;;;;;;;11.20;6.80;;;;;;;;;;5044348;28;20445;-53
2023/03/08 08:52:06;;;;;;;9.67;7.90;;;;;;;;;;5033895;28;20720;-53
2023/03/08 08:54:33;;;;;;;13.87;7.10;;;;;;;;;;5036967;28;20430;-51
2023/03/08 08:56:59;;;;;;;9.87;7.50;;;;;;;;;;5044760;28;20443;-51
2023/03/08 08:59:25;;;;;;;16.17;8.60;;;;;;;;;;5015047;28;20972;-53
2023/03/08 09:01:51;;;;;;;15.20;8.80;;;;;;;;;;5042580;28;20438;-53
2023/03/08 09:04:19;;;;;;;12.53;7.43;;;;;;;;;;5007297;28;20496;-52
2023/03/08 09:06:46;;;;;;;9.60;7.63;;;;;;;;;;5046487;28;20474;-51
2023/03/08 09:09:12;;;;;;;9.40;6.50;;;;;;;;;;5017798;28;20442;-52
2023/03/08 09:11:38;;;;;;;12.10;7.27;;;;;;;;;;5045930;28;20446;-53
2023/03/08 09:14:03;;;;;;;8.83;6.50;;;;;;;;;;5035659;28;20537;-51
2023/03/08 09:16:30;;;;;;;12.00;6.20;;;;;;;;;;5040550;28;20450;-52
2023/03/08 09:18:56;;;;;;;10.27;7.50;;;;;;;;;;5033322;28;20442;-53
2023/03/08 09:21:22;;;;;;;11.03;6.80;;;;;;;;;;5037812;28;20426;-49
2023/03/08 09:23:54;;;;;;;12.57;7.90;;;;;;;;;;5016904;28;20434;-50
2023/03/08 09:26:21;;;;;;;14.53;8.33;;;;;;;;;;5011876;28;20875;-53
2023/03/08 09:28:47;;;;;;;10.50;6.80;;;;;;;;;;5032789;28;20435;-52
2023/03/08 09:31:17;;;;;;;12.13;7.67;;;;;;;;;;5019893;28;20446;-52
2023/03/08 09:33:45;;;;;;;13.60;9.13;;;;;;;;;;5042772;28;20435;-52
2023/03/08 09:36:11;;;;;;;11.70;7.80;;;;;;;;;;5036033;28;20438;-52
2023/03/08 09:38:37;;;;;;;10.87;7.23;;;;;;;;;;5046716;28;20430;-52
2023/03/08 09:41:12;;;;;;;11.30;8.27;;;;;;;;;;5023767;28;20445;-53
2023/03/08 09:44:01;;;;;;;15.93;8.17;;;;;;;;;;5039621;28;20430;-53
2023/03/08 09:46:28;;;;;;;9.63;7.40;;;;;;;;;;5033984;28;20478;-52
2023/03/08 09:48:59;;;;;;;15.13;8.30;;;;;;;;;;5036581;28;20933;-51
2023/03/08 09:51:25;;;;;;;17.00;7.73;;;;;;;;;;5029465;28;20476;-52
2023/03/08 09:53:54;;;;;;;10.57;7.90;;;;;;;;;;5038551;28;20738;-53
2023/03/08 09:56:27;;;;;;;10.40;7.23;;;;;;;;;;5002002;28;20935;-52
2023/03/08 09:58:54;;;;;;;9.13;7.07;;;;;;;;;;5041237;28;20930;-52
2023/03/08 10:01:36;;;;;;;15.73;8.00;;;;;;;;;;5022972;28;20468;-53
2023/03/08 10:04:17;;;;;;;12.87;7.37;;;;;;;;;;5046442;28;20830;-51
2023/03/08 10:06:47;;;;;;;9.70;7.60;;;;;;;;;;5015812;28;20500;-52
2023/03/08 10:09:13;;;;;;;11.83;6.17;;;;;;;;;;5046594;28;20423;-53
2023/03/08 10:11:44;;;;;;;8.30;5.20;;;;;;;;;;5020804;28;20449;-52
2023/03/08 10:14:18;;;;;;;7.20;4.87;;;;;;;;;;5055579;28;20552;-51
2023/03/08 10:16:45;;;;;;;8.60;5.93;;;;;;;;;;5023064;28;20571;-52
2023/03/08 10:19:20;;;;;;;9.03;5.67;;;;;;;;;;5043352;28;20927;-53
2023/03/08 10:21:46;;;;;;;8.60;4.60;;;;;;;;;;5040622;28;20419;-52
2023/03/08 10:24:12;;;;;;;8.07;5.27;;;;;;;;;;5046506;28;20791;-53
2023/03/08 10:26:38;;;;;;;7.87;4.70;;;;;;;;;;5000393;28;20484;-52
2023/03/08 10:29:04;;;;;;;8.63;5.00;;;;;;;;;;5044059;28;20468;-52
2023/03/08 10:31:32;;;;;;;6.60;3.47;;;;;;;;;;5042827;28;20510;-53
2023/03/08 10:34:14;;;;;;;5.83;4.00;;;;;;;;;;5042185;28;20179;-52
2023/03/08 10:36:47;;;;;;;5.80;3.70;;;;;;;;;;5017035;28;20531;-53
2023/03/08 10:39:15;;;;;;;9.57;4.33;;;;;;;;;;5042098;28;20446;-53
2023/03/08 10:42:01;;;;;;;4.37;3.60;;;;;;;;;;5020014;28;20442;-54
2023/03/08 10:44:38;;;;;;;7.70;4.40;;;;;;;;;;5038543;28;20539;-53
2023/03/08 10:47:17;;;;;;;7.30;4.00;;;;;;;;;;5019919;28;20493;-53
2023/03/08 10:49:44;;;;;;;3.87;3.47;;;;;;;;;;5065154;28;20453;-53
2023/03/08 10:52:39;;;;;;;6.10;4.17;;;;;;;;;;5038251;28;20434;-53
2023/03/08 10:55:05;;;;;;;5.63;3.50;;;;;;;;;;5034016;28;20853;-54
2023/03/08 10:57:31;;;;;;;4.47;3.40;;;;;;;;;;5010572;28;20439;-53
2023/03/08 10:59:59;;;;;;;4.47;2.37;;;;;;;;;;5037714;28;20535;-52
2023/03/08 11:02:25;;;;;;;5.03;2.80;;;;;;;;;;5043163;28;20557;-52
2023/03/08 11:04:52;;;;;;;3.60;2.30;;;;;;;;;;5052714;28;20532;-52
2023/03/08 11:07:25;;;;;;;7.17;2.67;;;;;;;;;;5040532;28;20518;-54
2023/03/08 11:09:51;;;;;;;7.43;2.27;;;;;;;;;;5016362;28;20443;-52
2023/03/08 11:12:24;;;;;;;2.33;1.80;;;;;;;;;;5047477;28;20961;-51
2023/03/08 11:14:50;;;;;;;1.80;1.23;;;;;;;;;;5004202;28;21062;-52
2023/03/08 11:17:24;;;;;;;2.80;1.50;;;;;;;;;;5030185;28;20466;-52
2023/03/08 11:19:52;;;;;;;3.20;1.60;;;;;;;;;;5024456;28;20528;-53
2023/03/08 11:22:28;;;;;;;2.27;1.67;;;;;;;;;;5030405;28;20450;-54
2023/03/08 11:25:13;;;;;;;1.83;1.60;;;;;;;;;;5042107;28;20524;-52
2023/03/08 11:27:51;;;;;;;2.67;1.40;;;;;;;;;;5039132;28;20462;-50
2023/03/08 11:30:52;;;;;;;2.70;1.30;;;;;;;;;;5010173;28;21423;-53
2023/03/08 11:33:21;;;;;;;1.60;1.10;;;;;;;;;;4988086;28;20437;-51
2023/03/08 11:35:49;;;;;;;1.87;1.17;;;;;;;;;;5024310;28;20457;-53
2023/03/08 11:38:19;;;;;;;1.97;1.07;;;;;;;;;;5044089;28;20585;-52
2023/03/08 11:40:55;;;;;;;1.50;0.93;;;;;;;;;;5002817;28;20558;-52
2023/03/08 11:43:25;;;;;;;1.53;1.00;;;;;;;;;;5049612;28;20454;-53
2023/03/08 11:46:03;;;;;;;1.97;1.60;;;;;;;;;;5044686;28;20438;-54
2023/03/08 11:48:36;;;;;;;1.73;1.10;;;;;;;;;;5016107;28;20544;-54
2023/03/08 11:51:01;;;;;;;1.60;1.30;;;;;;;;;;5035479;28;20470;-55
2023/03/08 11:53:27;;;;;;;2.33;1.30;;;;;;;;;;5033955;28;20804;-54
2023/03/08 11:56:12;;;;;;;1.57;1.20;;;;;;;;;;4999464;28;20378;-53
2023/03/08 11:58:41;;;;;;;4.13;1.37;;;;;;;;;;5014203;28;20438;-53
2023/03/08 12:01:40;;;;;;;2.03;1.37;;;;;;;;;;5037652;28;20441;-53
2023/03/08 12:04:13;;;;;;;2.73;1.10;;;;;;;;;;5006723;28;21025;-54
2023/03/08 12:06:39;;;;;;;1.50;1.27;;;;;;;;;;5027064;28;21173;-52
2023/03/08 12:09:06;;;;;;;3.37;1.30;;;;;;;;;;4968711;28;20501;-51
2023/03/08 12:11:35;;;;;;;2.30;1.60;;;;;;;;;;4974542;28;20986;-53
2023/03/08 12:14:16;;;;;;;3.03;1.07;;;;;;;;;;5037244;28;21890;-54
2023/03/08 12:16:49;;;;;;;2.13;1.50;;;;;;;;;;5011950;28;20442;-53
2023/03/08 12:19:36;;;;;;;1.70;1.27;;;;;;;;;;5027637;28;20434;-52
2023/03/08 12:22:26;;;;;;;1.60;1.07;;;;;;;;;;5014857;28;20439;-54
2023/03/08 12:25:04;;;;;;;1.33;0.87;;;;;;;;;;4968409;28;20528;-52
2023/03/08 12:27:34;;;;;;;1.20;0.90;;;;;;;;;;5017789;28;20457;-52
2023/03/08 12:30:13;;;;;;;2.57;1.40;;;;;;;;;;5019273;28;20492;-52
2023/03/08 12:32:39;;;;;;;4.23;1.30;;;;;;;;;;5040520;28;20450;-53
2023/03/08 12:35:07;;;;;;;2.40;1.40;;;;;;;;;;5004288;28;20456;-53
2023/03/08 12:37:33;;;;;;;2.90;1.60;;;;;;;;;;5041591;28;20435;-52
2023/03/08 12:40:07;;;;;;;3.03;1.00;;;;;;;;;;5011566;28;20469;-53
2023/03/08 12:42:39;;;;;;;3.30;1.10;;;;;;;;;;5011628;28;20512;-53
2023/03/08 12:45:09;;;;;;;2.63;1.50;;;;;;;;;;5040636;28;20446;-54
2023/03/08 12:47:35;;;;;;;3.93;1.40;;;;;;;;;;5012539;28;20535;-54
2023/03/08 12:50:09;;;;;;;4.90;1.57;;;;;;;;;;5040322;28;20480;-52
2023/03/08 12:52:34;;;;;;;3.63;1.23;;;;;;;;;;5041761;28;20520;-54
2023/03/08 12:55:00;;;;;;;4.37;1.47;;;;;;;;;;5017567;28;20438;-52
2023/03/08 12:57:27;;;;;;;1.93;1.10;;;;;;;;;;5033955;28;20484;-53
2023/03/08 13:00:00;;;;;;;2.57;1.27;;;;;;;;;;5008919;28;20524;-54
2023/03/08 13:02:30;;;;;;;1.63;0.80;;;;;;;;;;5035793;28;20510;-54
2023/03/08 13:05:03;;;;;;;2.90;1.17;;;;;;;;;;5035210;28;20522;-51
2023/03/08 13:07:39;;;;;;;1.60;1.10;;;;;;;;;;5040142;28;20986;-54
2023/03/08 13:10:18;;;;;;;2.03;1.03;;;;;;;;;;5002634;28;20457;-54
2023/03/08 13:12:59;;;;;;;2.90;1.10;;;;;;;;;;5035050;28;20449;-51
2023/03/08 13:15:26;;;;;;;2.03;1.27;;;;;;;;;;5013564;28;21015;-51
2023/03/08 13:17:53;;;;;;;1.80;1.30;;;;;;;;;;5042129;28;20488;-54
2023/03/08 13:20:20;;;;;;;2.67;2.10;;;;;;;;;;5009708;28;20589;-54
2023/03/08 13:22:54;;;;;;;3.90;1.20;;;;;;;;;;5046229;28;20454;-52
2023/03/08 13:25:24;;;;;;;1.83;1.00;;;;;;;;;;5020463;28;20453;-53
2023/03/08 13:27:50;;;;;;;1.70;1.07;;;;;;;;;;5037141;28;21181;-53
2023/03/08 13:30:22;;;;;;;1.87;1.20;;;;;;;;;;5018315;28;20434;-53
2023/03/08 13:32:48;;;;;;;2.17;1.10;;;;;;;;;;5045838;28;20438;-53
2023/03/08 13:35:15;;;;;;;1.87;1.40;;;;;;;;;;5034573;28;20457;-52
2023/03/08 13:37:41;;;;;;;2.70;0.93;;;;;;;;;;5041638;28;20446;-53
2023/03/08 13:40:19;;;;;;;3.40;0.93;;;;;;;;;;5003896;28;20450;-53
2023/03/08 13:42:52;;;;;;;3.60;1.10;;;;;;;;;;5042483;28;20442;-54
2023/03/08 13:45:18;;;;;;;1.57;0.90;;;;;;;;;;5020157;28;20450;-55
2023/03/08 13:47:44;;;;;;;1.63;1.10;;;;;;;;;;5043961;28;20486;-54
2023/03/08 13:50:40;;;;;;;1.63;1.10;;;;;;;;;;5034906;28;20868;-54
2023/03/08 13:53:10;;;;;;;1.50;1.03;;;;;;;;;;5030581;28;20448;-56
2023/03/08 13:55:38;;;;;;;1.60;1.20;;;;;;;;;;5011442;28;20451;-54
2023/03/08 13:58:04;;;;;;;1.90;1.30;;;;;;;;;;5046948;28;20441;-53
2023/03/08 14:00:31;;;;;;;3.50;1.17;;;;;;;;;;5011384;28;20454;-53
2023/03/08 14:02:57;;;;;;;2.10;1.17;;;;;;;;;;5034934;28;20538;-54
2023/03/08 14:05:25;;;;;;;3.03;1.10;;;;;;;;;;5013197;28;24627;-54
2023/03/08 14:08:02;;;;;;;2.40;0.87;;;;;;;;;;5036380;28;20565;-53
2023/03/08 14:10:34;;;;;;;2.60;1.80;;;;;;;;;;5013805;28;20437;-53
2023/03/08 14:13:00;;;;;;;1.77;0.93;;;;;;;;;;5055061;28;20496;-52
2023/03/08 14:15:26;;;;;;;2.33;1.00;;;;;;;;;;4993780;28;20430;-54
2023/03/08 14:17:52;;;;;;;2.17;1.47;;;;;;;;;;5047291;28;20457;-53
2023/03/08 14:20:21;;;;;;;2.57;1.37;;;;;;;;;;5014252;28;20430;-52
2023/03/08 14:22:51;;;;;;;1.27;0.83;;;;;;;;;;5032779;28;21004;-53
2023/03/08 14:25:27;;;;;;;1.30;0.90;;;;;;;;;;5020126;28;20524;-52
2023/03/08 14:27:53;;;;;;;1.43;1.00;;;;;;;;;;5032620;28;20883;-54
2023/03/08 14:30:20;;;;;;;1.43;1.00;;;;;;;;;;5026844;28;20423;-54
2023/03/08 14:32:55;;;;;;;5.37;1.17;;;;;;;;;;5037559;28;20434;-54
2023/03/08 14:35:25;;;;;;;1.50;1.10;;;;;;;;;;5011910;28;20513;-54
2023/03/08 14:37:54;;;;;;;1.57;1.00;;;;;;;;;;5024662;28;20446;-52
2023/03/08 14:40:23;;;;;;;2.20;0.83;;;;;;;;;;5008020;28;20460;-54
2023/03/08 14:42:53;;;;;;;2.80;1.10;;;;;;;;;;5038822;28;20473;-53
2023/03/08 14:45:25;;;;;;;15.27;9.40;;;;;;;;;;5001510;28;20439;-53